sensor_id;sensor_type;location;lat;lon;timestamp;pressure;altitude;pressure_sealevel;temperature;humidity
44825;BME280;30542;47.928;2.138;2023-12-20T00:02:46;101026.69;;;20.31;43.35
44825;BME280;30542;47.928;2.138;2023-12-20T00:07:47;101038.72;;;20.28;43.46
44825;BME280;30542;47.928;2.138;2023-12-20T00:12:47;101043.22;;;20.28;43.31
44825;BME280;30542;47.928;2.138;2023-12-20T00:17:47;101043.75;;;20.25;43.40
44825;BME280;30542;47.928;2.138;2023-12-20T00:22:48;101050.38;;;20.22;43.27
44825;BME280;30542;47.928;2.138;2023-12-20T00:27:48;101057.28;;;20.18;43.38
44825;BME280;30542;47.928;2.138;2023-12-20T00:32:49;101058.09;;;20.19;43.52
44825;BME280;30542;47.928;2.138;2023-12-20T00:37:49;101066.63;;;20.16;43.61
44825;BME280;30542;47.928;2.138;2023-12-20T00:42:49;101058.84;;;20.14;43.40
44825;BME280;30542;47.928;2.138;2023-12-20T00:47:50;101055.63;;;20.12;43.69
44825;BME280;30542;47.928;2.138;2023-12-20T00:52:50;101048.56;;;20.06;43.46
44825;BME280;30542;47.928;2.138;2023-12-20T00:57:51;101051.81;;;20.08;43.61
44825;BME280;30542;47.928;2.138;2023-12-20T01:02:52;101045.06;;;20.05;43.52
44825;BME280;30542;47.928;2.138;2023-12-20T01:07:52;101045.56;;;20.02;43.58
44825;BME280;30542;47.928;2.138;2023-12-20T01:12:53;101053.03;;;20.00;43.79
44825;BME280;30542;47.928;2.138;2023-12-20T01:17:53;101055.94;;;19.99;43.63
44825;BME280;30542;47.928;2.138;2023-12-20T01:22:54;101053.78;;;19.96;43.47
44825;BME280;30542;47.928;2.138;2023-12-20T01:27:54;101058.53;;;19.94;43.56
44825;BME280;30542;47.928;2.138;2023-12-20T01:32:54;101056.13;;;19.92;43.75
44825;BME280;30542;47.928;2.138;2023-12-20T01:37:55;101064.88;;;19.88;43.92
44825;BME280;30542;47.928;2.138;2023-12-20T01:43:06;101083.00;;;19.85;44.00
44825;BME280;30542;47.928;2.138;2023-12-20T01:48:07;101087.56;;;19.85;43.78
44825;BME280;30542;47.928;2.138;2023-12-20T01:53:09;101091.28;;;19.84;43.69
44825;BME280;30542;47.928;2.138;2023-12-20T01:58:11;101098.66;;;19.77;43.99
44825;BME280;30542;47.928;2.138;2023-12-20T02:03:12;101113.88;;;19.76;43.97
44825;BME280;30542;47.928;2.138;2023-12-20T02:08:12;101134.00;;;19.79;43.82
44825;BME280;30542;47.928;2.138;2023-12-20T02:13:13;101138.75;;;19.77;43.89
44825;BME280;30542;47.928;2.138;2023-12-20T02:18:13;101143.53;;;19.75;44.12
44825;BME280;30542;47.928;2.138;2023-12-20T02:23:16;101142.97;;;19.73;44.01
44825;BME280;30542;47.928;2.138;2023-12-20T02:28:17;101135.41;;;19.70;44.10
44825;BME280;30542;47.928;2.138;2023-12-20T02:33:17;101144.50;;;19.69;44.11
44825;BME280;30542;47.928;2.138;2023-12-20T02:38:17;101145.56;;;19.68;44.31
44825;BME280;30542;47.928;2.138;2023-12-20T02:43:18;101174.38;;;19.66;44.41
44825;BME280;30542;47.928;2.138;2023-12-20T02:48:18;101185.31;;;19.64;44.16
44825;BME280;30542;47.928;2.138;2023-12-20T02:53:18;101201.09;;;19.66;44.07
44825;BME280;30542;47.928;2.138;2023-12-20T02:58:19;101207.28;;;19.66;44.02
44825;BME280;30542;47.928;2.138;2023-12-20T03:03:19;101208.09;;;19.67;44.32
44825;BME280;30542;47.928;2.138;2023-12-20T03:08:20;101212.38;;;19.68;44.11
44825;BME280;30542;47.928;2.138;2023-12-20T03:13:20;101215.59;;;19.70;44.09
44825;BME280;30542;47.928;2.138;2023-12-20T03:18:20;101224.75;;;19.74;44.31
44825;BME280;30542;47.928;2.138;2023-12-20T03:23:21;101237.09;;;19.75;44.06
44825;BME280;30542;47.928;2.138;2023-12-20T03:28:21;101234.84;;;19.83;44.26
44825;BME280;30542;47.928;2.138;2023-12-20T03:33:23;101237.75;;;19.99;44.08
44825;BME280;30542;47.928;2.138;2023-12-20T03:38:23;101234.47;;;20.08;43.96
44825;BME280;30542;47.928;2.138;2023-12-20T03:43:24;101236.75;;;20.17;43.74
44825;BME280;30542;47.928;2.138;2023-12-20T03:48:24;101233.66;;;20.25;43.59
44825;BME280;30542;47.928;2.138;2023-12-20T03:53:24;101237.22;;;20.30;43.27
44825;BME280;30542;47.928;2.138;2023-12-20T03:58:25;101238.13;;;20.36;43.33
44825;BME280;30542;47.928;2.138;2023-12-20T04:03:25;101224.84;;;20.41;43.17
44825;BME280;30542;47.928;2.138;2023-12-20T04:08:26;101228.38;;;20.47;43.31
44825;BME280;30542;47.928;2.138;2023-12-20T04:13:26;101226.88;;;20.51;43.31
44825;BME280;30542;47.928;2.138;2023-12-20T04:18:26;101238.47;;;20.56;43.33
44825;BME280;30542;47.928;2.138;2023-12-20T04:23:28;101228.88;;;20.60;43.35
44825;BME280;30542;47.928;2.138;2023-12-20T04:28:28;101245.53;;;20.63;43.22
44825;BME280;30542;47.928;2.138;2023-12-20T04:33:30;101230.81;;;20.65;43.24
44825;BME280;30542;47.928;2.138;2023-12-20T04:38:30;101245.59;;;20.68;43.20
44825;BME280;30542;47.928;2.138;2023-12-20T04:43:31;101242.44;;;20.71;42.96
44825;BME280;30542;47.928;2.138;2023-12-20T04:48:32;101237.63;;;20.73;42.96
44825;BME280;30542;47.928;2.138;2023-12-20T04:53:32;101242.25;;;20.77;42.94
44825;BME280;30542;47.928;2.138;2023-12-20T04:58:32;101255.94;;;20.81;42.94
44825;BME280;30542;47.928;2.138;2023-12-20T05:03:33;101257.59;;;20.82;42.96
44825;BME280;30542;47.928;2.138;2023-12-20T05:08:33;101251.16;;;20.83;42.85
44825;BME280;30542;47.928;2.138;2023-12-20T05:13:33;101256.59;;;20.88;42.66
44825;BME280;30542;47.928;2.138;2023-12-20T05:18:34;101259.84;;;20.90;42.82
44825;BME280;30542;47.928;2.138;2023-12-20T05:23:34;101268.44;;;20.92;42.94
44825;BME280;30542;47.928;2.138;2023-12-20T05:28:35;101260.13;;;20.94;42.99
44825;BME280;30542;47.928;2.138;2023-12-20T05:33:35;101256.16;;;20.96;43.13
44825;BME280;30542;47.928;2.138;2023-12-20T05:38:35;101251.13;;;21.00;43.57
44825;BME280;30542;47.928;2.138;2023-12-20T05:43:36;101248.19;;;21.01;43.79
44825;BME280;30542;47.928;2.138;2023-12-20T05:48:36;101261.09;;;21.04;43.93
44825;BME280;30542;47.928;2.138;2023-12-20T05:53:37;101268.06;;;21.05;44.02
44825;BME280;30542;47.928;2.138;2023-12-20T05:58:38;101275.03;;;21.06;43.96
44825;BME280;30542;47.928;2.138;2023-12-20T06:03:41;101274.22;;;21.06;44.11
44825;BME280;30542;47.928;2.138;2023-12-20T06:08:42;101276.69;;;21.07;44.13
44825;BME280;30542;47.928;2.138;2023-12-20T06:13:43;101299.16;;;21.06;44.29
44825;BME280;30542;47.928;2.138;2023-12-20T06:18:44;101302.41;;;21.08;44.13
44825;BME280;30542;47.928;2.138;2023-12-20T06:23:44;101296.47;;;21.06;44.08
44825;BME280;30542;47.928;2.138;2023-12-20T06:28:44;101304.50;;;21.06;43.96
44825;BME280;30542;47.928;2.138;2023-12-20T06:33:45;101312.53;;;21.06;43.91
44825;BME280;30542;47.928;2.138;2023-12-20T06:38:45;101317.91;;;21.06;43.77
44825;BME280;30542;47.928;2.138;2023-12-20T06:43:46;101305.34;;;21.07;43.69
44825;BME280;30542;47.928;2.138;2023-12-20T06:48:47;101315.22;;;21.06;43.60
44825;BME280;30542;47.928;2.138;2023-12-20T06:53:47;101316.06;;;21.07;43.61
44825;BME280;30542;47.928;2.138;2023-12-20T06:58:48;101319.53;;;21.07;43.62
44825;BME280;30542;47.928;2.138;2023-12-20T07:03:48;101317.91;;;21.06;43.42
44825;BME280;30542;47.928;2.138;2023-12-20T07:08:48;101309.63;;;21.08;43.52
44825;BME280;30542;47.928;2.138;2023-12-20T07:13:49;101312.31;;;21.08;43.62
44825;BME280;30542;47.928;2.138;2023-12-20T07:18:49;101310.94;;;21.05;43.63
44825;BME280;30542;47.928;2.138;2023-12-20T07:23:50;101313.88;;;21.04;43.78
44825;BME280;30542;47.928;2.138;2023-12-20T07:28:50;101322.13;;;21.02;44.26
44825;BME280;30542;47.928;2.138;2023-12-20T07:33:51;101315.16;;;21.01;44.68
44825;BME280;30542;47.928;2.138;2023-12-20T07:38:51;101316.78;;;21.02;45.19
44825;BME280;30542;47.928;2.138;2023-12-20T07:43:52;101323.44;;;21.00;45.34
44825;BME280;30542;47.928;2.138;2023-12-20T07:48:53;101324.81;;;21.02;45.47
44825;BME280;30542;47.928;2.138;2023-12-20T07:53:54;101335.28;;;21.04;45.57
44825;BME280;30542;47.928;2.138;2023-12-20T07:58:54;101342.25;;;21.05;45.44
44825;BME280;30542;47.928;2.138;2023-12-20T08:03:54;101354.59;;;21.06;45.57
44825;BME280;30542;47.928;2.138;2023-12-20T08:08:55;101373.94;;;21.08;45.33
44825;BME280;30542;47.928;2.138;2023-12-20T08:13:55;101371.78;;;21.10;45.29
44825;BME280;30542;47.928;2.138;2023-12-20T08:18:55;101377.75;;;21.12;45.09
44825;BME280;30542;47.928;2.138;2023-12-20T08:23:56;101384.97;;;21.12;44.99
44825;BME280;30542;47.928;2.138;2023-12-20T08:28:56;101393.56;;;21.14;44.90
44825;BME280;30542;47.928;2.138;2023-12-20T08:33:57;101375.06;;;21.12;44.72
44825;BME280;30542;47.928;2.138;2023-12-20T08:38:57;101375.13;;;21.17;44.66
44825;BME280;30542;47.928;2.138;2023-12-20T08:43:57;101379.75;;;21.22;44.51
44825;BME280;30542;47.928;2.138;2023-12-20T08:48:58;101371.28;;;21.30;44.52
44825;BME280;30542;47.928;2.138;2023-12-20T08:53:58;101387.13;;;21.70;43.85
44825;BME280;30542;47.928;2.138;2023-12-20T08:58:59;101378.31;;;22.73;42.12
44825;BME280;30542;47.928;2.138;2023-12-20T09:03:59;101376.09;;;23.44;40.50
44825;BME280;30542;47.928;2.138;2023-12-20T09:08:59;101376.00;;;23.29;40.33
44825;BME280;30542;47.928;2.138;2023-12-20T09:14:00;101374.09;;;22.87;41.28
44825;BME280;30542;47.928;2.138;2023-12-20T09:19:01;101376.56;;;22.56;41.60
44825;BME280;30542;47.928;2.138;2023-12-20T09:24:02;101375.25;;;22.32;42.25
44825;BME280;30542;47.928;2.138;2023-12-20T09:29:03;101373.78;;;22.19;42.43
44825;BME280;30542;47.928;2.138;2023-12-20T09:34:03;101365.84;;;22.07;42.66
44825;BME280;30542;47.928;2.138;2023-12-20T09:39:03;101378.09;;;21.98;43.09
44825;BME280;30542;47.928;2.138;2023-12-20T09:44:04;101387.63;;;21.89;42.94
44825;BME280;30542;47.928;2.138;2023-12-20T09:49:05;101404.22;;;21.86;43.23
44825;BME280;30542;47.928;2.138;2023-12-20T09:54:06;101402.03;;;21.83;43.28
44825;BME280;30542;47.928;2.138;2023-12-20T09:59:07;101397.16;;;21.80;43.31
44825;BME280;30542;47.928;2.138;2023-12-20T10:04:08;101411.66;;;21.79;43.29
44825;BME280;30542;47.928;2.138;2023-12-20T10:09:10;101399.00;;;21.74;43.24
44825;BME280;30542;47.928;2.138;2023-12-20T10:14:11;101394.97;;;21.77;43.29
44825;BME280;30542;47.928;2.138;2023-12-20T10:19:11;101386.94;;;21.77;43.07
44825;BME280;30542;47.928;2.138;2023-12-20T10:24:17;101372.97;;;21.75;43.01
44825;BME280;30542;47.928;2.138;2023-12-20T10:29:18;101363.56;;;21.72;43.14
44825;BME280;30542;47.928;2.138;2023-12-20T10:34:18;101361.63;;;21.68;43.13
44825;BME280;30542;47.928;2.138;2023-12-20T10:39:18;101358.41;;;21.66;43.19
44825;BME280;30542;47.928;2.138;2023-12-20T10:44:20;101361.31;;;21.64;43.13
44825;BME280;30542;47.928;2.138;2023-12-20T10:49:21;101348.16;;;21.63;43.21
44825;BME280;30542;47.928;2.138;2023-12-20T10:54:21;101359.38;;;21.59;43.12
44825;BME280;30542;47.928;2.138;2023-12-20T10:59:22;101352.88;;;21.55;43.38
44825;BME280;30542;47.928;2.138;2023-12-20T11:04:26;101346.78;;;21.60;43.43
44825;BME280;30542;47.928;2.138;2023-12-20T11:09:40;101288.69;;;21.27;43.42
44825;BME280;30542;47.928;2.138;2023-12-20T11:14:48;101323.97;;;21.57;43.46
44825;BME280;30542;47.928;2.138;2023-12-20T11:24:53;101318.03;;;21.55;43.51
44825;BME280;30542;47.928;2.138;2023-12-20T11:29:57;101330.91;;;21.53;43.40
44825;BME280;30542;47.928;2.138;2023-12-20T11:34:59;101319.09;;;21.54;43.56
44825;BME280;30542;47.928;2.138;2023-12-20T11:40:06;101314.75;;;21.48;43.50
44825;BME280;30542;47.928;2.138;2023-12-20T11:45:10;101311.00;;;21.49;43.43
44825;BME280;30542;47.928;2.138;2023-12-20T11:50:11;101306.72;;;21.48;43.53
44825;BME280;30542;47.928;2.138;2023-12-20T11:55:11;101307.75;;;21.47;43.56
44825;BME280;30542;47.928;2.138;2023-12-20T12:00:13;101291.06;;;21.40;43.43
44825;BME280;30542;47.928;2.138;2023-12-20T12:05:14;101296.72;;;21.44;43.48
44825;BME280;30542;47.928;2.138;2023-12-20T12:10:14;101288.94;;;21.42;43.56
44825;BME280;30542;47.928;2.138;2023-12-20T12:15:15;101275.78;;;21.41;43.62
44825;BME280;30542;47.928;2.138;2023-12-20T12:20:19;101267.19;;;21.39;43.38
44825;BME280;30542;47.928;2.138;2023-12-20T12:25:22;101269.53;;;21.35;43.43
44825;BME280;30542;47.928;2.138;2023-12-20T12:30:22;101266.38;;;21.38;43.47
44825;BME280;30542;47.928;2.138;2023-12-20T12:35:23;101272.22;;;21.35;43.57
44825;BME280;30542;47.928;2.138;2023-12-20T12:40:23;101264.19;;;21.35;43.45
44825;BME280;30542;47.928;2.138;2023-12-20T12:45:23;101281.06;;;21.35;43.39
44825;BME280;30542;47.928;2.138;2023-12-20T12:50:24;101253.38;;;21.30;43.48
44825;BME280;30542;47.928;2.138;2023-12-20T12:55:25;101256.41;;;21.33;43.55
44825;BME280;30542;47.928;2.138;2023-12-20T13:00:25;101234.16;;;21.33;43.48
44825;BME280;30542;47.928;2.138;2023-12-20T13:05:26;101228.19;;;21.31;43.53
44825;BME280;30542;47.928;2.138;2023-12-20T13:10:26;101220.97;;;21.31;43.45
44825;BME280;30542;47.928;2.138;2023-12-20T13:15:27;101235.22;;;21.32;43.44
44825;BME280;30542;47.928;2.138;2023-12-20T13:20:27;101217.47;;;21.31;43.47
44825;BME280;30542;47.928;2.138;2023-12-20T13:25:27;101219.16;;;21.32;43.52
44825;BME280;30542;47.928;2.138;2023-12-20T13:30:28;101210.25;;;21.31;43.38
44825;BME280;30542;47.928;2.138;2023-12-20T13:35:28;101201.19;;;21.32;43.51
44825;BME280;30542;47.928;2.138;2023-12-20T13:40:28;101196.03;;;21.31;43.44
44825;BME280;30542;47.928;2.138;2023-12-20T13:45:29;101178.97;;;21.32;43.26
44825;BME280;30542;47.928;2.138;2023-12-20T13:50:29;101183.72;;;21.30;43.32
44825;BME280;30542;47.928;2.138;2023-12-20T13:55:30;101179.16;;;21.30;43.33
44825;BME280;30542;47.928;2.138;2023-12-20T14:00:30;101175.41;;;21.31;43.27
44825;BME280;30542;47.928;2.138;2023-12-20T14:05:31;101161.22;;;21.31;43.33
44825;BME280;30542;47.928;2.138;2023-12-20T14:10:31;101151.00;;;21.28;43.29
44825;BME280;30542;47.928;2.138;2023-12-20T14:15:31;101159.59;;;21.30;43.35
44825;BME280;30542;47.928;2.138;2023-12-20T14:20:37;101166.81;;;21.29;43.32
44825;BME280;30542;47.928;2.138;2023-12-20T14:25:39;101154.50;;;21.28;43.14
44825;BME280;30542;47.928;2.138;2023-12-20T14:30:40;101131.41;;;21.27;43.16
44825;BME280;30542;47.928;2.138;2023-12-20T14:35:40;101119.91;;;21.27;43.21
44825;BME280;30542;47.928;2.138;2023-12-20T14:40:42;101129.81;;;21.26;43.27
44825;BME280;30542;47.928;2.138;2023-12-20T14:45:43;101131.69;;;21.26;43.18
44825;BME280;30542;47.928;2.138;2023-12-20T14:50:44;101139.19;;;21.24;43.16
44825;BME280;30542;47.928;2.138;2023-12-20T14:55:44;101128.69;;;21.22;43.12
44825;BME280;30542;47.928;2.138;2023-12-20T15:00:45;101125.53;;;21.25;43.22
44825;BME280;30542;47.928;2.138;2023-12-20T15:05:45;101108.06;;;21.23;43.26
44825;BME280;30542;47.928;2.138;2023-12-20T15:10:47;101096.84;;;21.26;43.22
44825;BME280;30542;47.928;2.138;2023-12-20T15:15:48;101091.50;;;21.26;43.12
44825;BME280;30542;47.928;2.138;2023-12-20T15:20:48;101083.47;;;21.26;43.03
44825;BME280;30542;47.928;2.138;2023-12-20T15:25:49;101091.50;;;21.26;43.10
44825;BME280;30542;47.928;2.138;2023-12-20T15:30:49;101090.69;;;21.25;42.97
44825;BME280;30542;47.928;2.138;2023-12-20T15:35:50;101084.53;;;21.25;43.03
44825;BME280;30542;47.928;2.138;2023-12-20T15:40:50;101088.00;;;21.25;43.03
44825;BME280;30542;47.928;2.138;2023-12-20T15:45:50;101089.56;;;21.21;42.96
44825;BME280;30542;47.928;2.138;2023-12-20T15:50:51;101094.44;;;21.24;42.88
44825;BME280;30542;47.928;2.138;2023-12-20T15:55:52;101093.63;;;21.24;42.86
44825;BME280;30542;47.928;2.138;2023-12-20T16:00:52;101095.25;;;21.25;42.85
44825;BME280;30542;47.928;2.138;2023-12-20T16:05:53;101089.06;;;21.24;42.76
44825;BME280;30542;47.928;2.138;2023-12-20T16:10:54;101101.66;;;21.24;42.88
44825;BME280;30542;47.928;2.138;2023-12-20T16:15:54;101104.34;;;21.24;42.79
44825;BME280;30542;47.928;2.138;2023-12-20T16:20:55;101109.72;;;21.24;42.67
44825;BME280;30542;47.928;2.138;2023-12-20T16:25:55;101107.25;;;21.22;42.83
44825;BME280;30542;47.928;2.138;2023-12-20T16:30:56;101112.63;;;21.22;42.66
44825;BME280;30542;47.928;2.138;2023-12-20T16:35:56;101115.88;;;21.24;42.74
44825;BME280;30542;47.928;2.138;2023-12-20T16:40:57;101120.16;;;21.25;42.79
44825;BME280;30542;47.928;2.138;2023-12-20T16:45:57;101118.28;;;21.26;42.92
44825;BME280;30542;47.928;2.138;2023-12-20T16:50:58;101114.81;;;21.25;42.61
44825;BME280;30542;47.928;2.138;2023-12-20T16:55:58;101111.06;;;21.26;42.77
44825;BME280;30542;47.928;2.138;2023-12-20T17:01:00;101097.41;;;21.28;42.74
44825;BME280;30542;47.928;2.138;2023-12-20T17:06:00;101100.59;;;21.25;42.96
44825;BME280;30542;47.928;2.138;2023-12-20T17:11:00;101109.97;;;21.27;43.13
44825;BME280;30542;47.928;2.138;2023-12-20T17:16:01;101104.63;;;21.27;42.86
44825;BME280;30542;47.928;2.138;2023-12-20T17:21:01;101093.09;;;21.27;42.83
44825;BME280;30542;47.928;2.138;2023-12-20T17:26:02;101096.84;;;21.26;43.01
44825;BME280;30542;47.928;2.138;2023-12-20T17:31:03;101086.63;;;21.23;42.90
44825;BME280;30542;47.928;2.138;2023-12-20T17:36:03;101072.75;;;21.26;42.97
44825;BME280;30542;47.928;2.138;2023-12-20T17:41:05;101090.44;;;21.27;42.81
44825;BME280;30542;47.928;2.138;2023-12-20T17:46:05;101059.34;;;21.26;42.79
44825;BME280;30542;47.928;2.138;2023-12-20T17:51:06;101080.78;;;21.26;42.83
44825;BME280;30542;47.928;2.138;2023-12-20T17:56:07;101082.38;;;21.27;42.99
44825;BME280;30542;47.928;2.138;2023-12-20T18:01:07;101079.72;;;21.27;42.95
44825;BME280;30542;47.928;2.138;2023-12-20T18:06:07;101082.38;;;21.27;42.99
44825;BME280;30542;47.928;2.138;2023-12-20T18:11:08;101081.84;;;21.25;42.88
44825;BME280;30542;47.928;2.138;2023-12-20T18:16:08;101086.13;;;21.26;42.81
44825;BME280;30542;47.928;2.138;2023-12-20T18:21:11;101072.75;;;21.26;42.83
44825;BME280;30542;47.928;2.138;2023-12-20T18:26:12;101071.13;;;21.25;42.90
44825;BME280;30542;47.928;2.138;2023-12-20T18:31:12;101067.66;;;21.24;42.74
44825;BME280;30542;47.928;2.138;2023-12-20T18:36:12;101063.91;;;21.25;42.88
44825;BME280;30542;47.928;2.138;2023-12-20T18:41:13;101063.91;;;21.25;42.78
44825;BME280;30542;47.928;2.138;2023-12-20T18:46:14;101073.31;;;21.28;42.80
44825;BME280;30542;47.928;2.138;2023-12-20T18:51:15;101071.66;;;21.27;42.68
44825;BME280;30542;47.928;2.138;2023-12-20T18:56:15;101085.06;;;21.27;42.80
44825;BME280;30542;47.928;2.138;2023-12-20T19:01:16;101079.97;;;21.25;42.88
44825;BME280;30542;47.928;2.138;2023-12-20T19:06:16;101092.31;;;21.26;42.78
44825;BME280;30542;47.928;2.138;2023-12-20T19:11:16;101084.84;;;21.28;42.80
44825;BME280;30542;47.928;2.138;2023-12-20T19:16:18;101078.13;;;21.31;42.92
44825;BME280;30542;47.928;2.138;2023-12-20T19:21:18;101059.91;;;21.28;43.04
44825;BME280;30542;47.928;2.138;2023-12-20T19:26:19;101057.78;;;21.30;42.99
44825;BME280;30542;47.928;2.138;2023-12-20T19:31:20;101054.28;;;21.29;43.25
44825;BME280;30542;47.928;2.138;2023-12-20T19:36:20;101032.81;;;21.24;43.25
44825;BME280;30542;47.928;2.138;2023-12-20T19:41:20;101022.63;;;21.26;43.26
44825;BME280;30542;47.928;2.138;2023-12-20T19:46:21;101027.50;;;21.29;43.32
44825;BME280;30542;47.928;2.138;2023-12-20T19:51:21;101015.66;;;21.25;43.35
44825;BME280;30542;47.928;2.138;2023-12-20T19:56:24;101007.94;;;21.29;43.36
44825;BME280;30542;47.928;2.138;2023-12-20T20:01:24;100991.06;;;21.28;43.57
44825;BME280;30542;47.928;2.138;2023-12-20T20:06:24;100993.72;;;21.28;43.60
44825;BME280;30542;47.928;2.138;2023-12-20T20:11:25;100987.56;;;21.28;43.50
44825;BME280;30542;47.928;2.138;2023-12-20T20:16:25;100977.91;;;21.27;43.63
44825;BME280;30542;47.928;2.138;2023-12-20T20:21:26;100974.69;;;21.25;43.78
44825;BME280;30542;47.928;2.138;2023-12-20T20:26:26;100977.09;;;21.26;43.75
44825;BME280;30542;47.928;2.138;2023-12-20T20:31:27;100955.91;;;21.25;43.77
44825;BME280;30542;47.928;2.138;2023-12-20T20:36:31;100958.59;;;21.25;43.83
44825;BME280;30542;47.928;2.138;2023-12-20T20:41:31;100954.31;;;21.24;43.77
44825;BME280;30542;47.928;2.138;2023-12-20T20:46:32;100955.13;;;21.24;43.86
44825;BME280;30542;47.928;2.138;2023-12-20T20:51:32;100955.13;;;21.24;43.84
44825;BME280;30542;47.928;2.138;2023-12-20T20:56:33;100959.66;;;21.24;43.77
44825;BME280;30542;47.928;2.138;2023-12-20T21:01:34;100940.63;;;21.20;43.78
44825;BME280;30542;47.928;2.138;2023-12-20T21:06:34;100947.88;;;21.25;43.78
44825;BME280;30542;47.928;2.138;2023-12-20T21:11:35;100952.97;;;21.26;43.88
44825;BME280;30542;47.928;2.138;2023-12-20T21:16:35;100936.59;;;21.23;43.65
44825;BME280;30542;47.928;2.138;2023-12-20T21:21:37;100929.13;;;21.25;43.77
44825;BME280;30542;47.928;2.138;2023-12-20T21:26:38;100926.44;;;21.25;44.07
44825;BME280;30542;47.928;2.138;2023-12-20T21:31:38;100913.06;;;21.25;44.26
44825;BME280;30542;47.928;2.138;2023-12-20T21:36:39;100893.72;;;21.23;44.72
44825;BME280;30542;47.928;2.138;2023-12-20T21:41:39;100897.50;;;21.22;45.05
44825;BME280;30542;47.928;2.138;2023-12-20T21:46:39;100889.97;;;21.19;45.59
44825;BME280;30542;47.928;2.138;2023-12-20T21:51:41;100893.97;;;21.16;45.84
44825;BME280;30542;47.928;2.138;2023-12-20T21:56:42;100898.22;;;21.12;46.12
44825;BME280;30542;47.928;2.138;2023-12-20T22:01:43;100900.34;;;21.10;46.17
44825;BME280;30542;47.928;2.138;2023-12-20T22:06:43;100888.81;;;21.04;46.38
44825;BME280;30542;47.928;2.138;2023-12-20T22:11:44;100886.38;;;21.03;46.45
44825;BME280;30542;47.928;2.138;2023-12-20T22:16:44;100862.22;;;20.98;46.49
44825;BME280;30542;47.928;2.138;2023-12-20T22:21:44;100869.44;;;20.92;47.42
44825;BME280;30542;47.928;2.138;2023-12-20T22:26:45;100871.81;;;20.89;47.08
44825;BME280;30542;47.928;2.138;2023-12-20T22:31:45;100868.28;;;20.83;46.82
44825;BME280;30542;47.928;2.138;2023-12-20T22:36:46;100873.34;;;20.79;47.01
44825;BME280;30542;47.928;2.138;2023-12-20T22:41:46;100863.13;;;20.76;47.05
44825;BME280;30542;47.928;2.138;2023-12-20T22:46:46;100862.84;;;20.73;46.97
44825;BME280;30542;47.928;2.138;2023-12-20T22:51:47;100831.19;;;20.65;47.18
44825;BME280;30542;47.928;2.138;2023-12-20T22:56:48;100829.31;;;20.65;47.16
44825;BME280;30542;47.928;2.138;2023-12-20T23:01:54;100815.59;;;20.56;47.10
44825;BME280;30542;47.928;2.138;2023-12-20T23:06:54;100839.44;;;20.58;47.37
44825;BME280;30542;47.928;2.138;2023-12-20T23:11:54;100834.84;;;20.53;47.37
44825;BME280;30542;47.928;2.138;2023-12-20T23:16:55;100826.25;;;20.51;47.36
44825;BME280;30542;47.928;2.138;2023-12-20T23:21:55;100817.69;;;20.49;47.46
44825;BME280;30542;47.928;2.138;2023-12-20T23:26:56;100798.38;;;20.47;47.57
44825;BME280;30542;47.928;2.138;2023-12-20T23:31:57;100786.31;;;20.45;47.47
44825;BME280;30542;47.928;2.138;2023-12-20T23:36:57;100779.34;;;20.44;47.50
44825;BME280;30542;47.928;2.138;2023-12-20T23:41:58;100776.13;;;20.42;47.34
44825;BME280;30542;47.928;2.138;2023-12-20T23:46:58;100785.47;;;20.39;47.50
44825;BME280;30542;47.928;2.138;2023-12-20T23:51:58;100778.75;;;20.36;47.65
44825;BME280;30542;47.928;2.138;2023-12-20T23:56:59;100771.25;;;20.33;47.51
